Time;durP1;ratioP1;P1;durP2;ratioP2;P2;SDS_P1;SDS_P2;PMS_P1;PMS_P2;Temp;Humidity;BMP_temperature;BMP_pressure;BME280_temperature;BME280_humidity;BME280_pressure;Samples;Min_cycle;Max_cycle;Signal;HPM_P1;HPM_P2
2021/11/04 00:00:16;;;;;;;;;;;384.50;2329.60;;;;;;4993784;28;19914;-75
2021/11/04 00:02:41;;;;;;;;;;;384.50;2329.60;;;;;;4995030;28;19932;-76
2021/11/04 00:05:07;;;;;;;;;;;384.50;2329.60;;;;;;4994036;28;20351;-75
2021/11/04 00:07:33;;;;;;;;;;;384.60;2329.60;;;;;;4995019;28;19914;-75
2021/11/04 00:09:59;;;;;;;;;;;384.60;2329.60;;;;;;4974229;28;20069;-74
2021/11/04 00:12:24;;;;;;;;;;;384.60;2329.60;;;;;;4974063;28;20000;-76
2021/11/04 00:14:50;;;;;;;;;;;384.60;2329.60;;;;;;4974109;28;20298;-75
2021/11/04 00:17:17;;;;;;;;;;;384.70;2329.60;;;;;;4975155;28;19945;-75
2021/11/04 00:19:43;;;;;;;;;;;384.60;2329.60;;;;;;4975481;28;19907;-75
2021/11/04 00:22:10;;;;;;;;;;;384.60;2329.60;;;;;;4975203;28;19907;-75
2021/11/04 00:24:35;;;;;;;;;;;384.70;2329.60;;;;;;4975194;28;19913;-76
2021/11/04 00:27:01;;;;;;;;;;;384.70;2329.60;;;;;;4978001;28;19993;-75
2021/11/04 00:29:27;;;;;;;;;;;384.60;2329.60;;;;;;4994462;28;19905;-76
2021/11/04 00:31:52;;;;;;;;;;;384.60;2329.60;;;;;;4994683;28;19952;-75
2021/11/04 00:34:18;;;;;;;;;;;384.60;2329.60;;;;;;4994451;28;19914;-75
2021/11/04 00:36:44;;;;;;;;;;;384.50;2329.60;;;;;;4994639;28;20071;-77
2021/11/04 00:39:10;;;;;;;;;;;384.50;2329.60;;;;;;4994331;28;19909;-76
2021/11/04 00:41:36;;;;;;;;;;;384.50;2329.60;;;;;;4975732;28;19942;-75
2021/11/04 00:44:02;;;;;;;;;;;384.60;2329.60;;;;;;4974446;28;20364;-80
2021/11/04 00:46:31;;;;;;;;;;;384.60;2329.60;;;;;;4973399;28;20000;-77
2021/11/04 00:48:57;;;;;;;;;;;384.70;2329.60;;;;;;4973085;28;19952;-76
2021/11/04 00:51:23;;;;;;;;;;;384.70;2329.60;;;;;;4974299;28;19952;-76
2021/11/04 00:53:49;;;;;;;;;;;384.70;2329.60;;;;;;4972975;28;19914;-79
2021/11/04 00:56:15;;;;;;;;;;;384.70;2329.60;;;;;;4973253;28;19906;-76
2021/11/04 00:58:40;;;;;;;;;;;384.90;2329.60;;;;;;4974439;28;19953;-79
2021/11/04 01:01:06;;;;;;;;;;;384.90;2329.60;;;;;;4973272;28;20283;-75
2021/11/04 01:03:32;;;;;;;;;;;409.60;2355.20;;;;;;4974194;28;19917;-75
2021/11/04 01:05:58;;;;;;;;;;;409.60;2355.20;;;;;;4972777;28;20382;-76
2021/11/04 01:08:24;;;;;;;;;;;409.60;2355.20;;;;;;4972993;28;19907;-76
2021/11/04 01:10:49;;;;;;;;;;;409.60;2355.20;;;;;;4973670;28;19913;-75
2021/11/04 01:13:15;;;;;;;;;;;409.70;2355.20;;;;;;4973786;28;19917;-75
2021/11/04 01:15:41;;;;;;;;;;;409.80;2355.20;;;;;;4973791;28;20299;-75
2021/11/04 01:18:06;;;;;;;;;;;409.70;2355.20;;;;;;4974030;28;19910;-75
2021/11/04 01:20:32;;;;;;;;;;;409.70;2355.20;;;;;;4972307;28;19949;-75
2021/11/04 01:22:58;;;;;;;;;;;409.80;2355.20;;;;;;4972629;28;19905;-76
2021/11/04 01:25:23;;;;;;;;;;;409.80;2355.20;;;;;;4972485;28;19906;-75
2021/11/04 01:27:49;;;;;;;;;;;409.80;2355.20;;;;;;4973578;28;19906;-76
2021/11/04 01:30:14;;;;;;;;;;;409.80;2355.20;;;;;;4973578;28;19949;-76
2021/11/04 01:32:40;;;;;;;;;;;409.80;2355.20;;;;;;4972021;28;20368;-75
2021/11/04 01:35:06;;;;;;;;;;;409.70;2355.20;;;;;;4972320;28;19961;-76
2021/11/04 01:37:32;;;;;;;;;;;409.70;2355.20;;;;;;4973285;28;19905;-76
2021/11/04 01:39:58;;;;;;;;;;;409.70;2355.20;;;;;;4973800;28;19996;-76
2021/11/04 01:42:23;;;;;;;;;;;409.60;2355.20;;;;;;4972854;28;19941;-75
2021/11/04 01:44:49;;;;;;;;;;;409.60;2355.20;;;;;;4972084;28;19906;-75
2021/11/04 01:47:15;;;;;;;;;;;409.70;2355.20;;;;;;4973390;28;19910;-77
2021/11/04 01:49:41;;;;;;;;;;;409.70;2355.20;;;;;;4973559;28;20309;-76
2021/11/04 01:52:10;;;;;;;;;;;409.70;2355.20;;;;;;4973076;28;20324;-75
2021/11/04 01:54:36;;;;;;;;;;;409.80;2355.20;;;;;;4973182;28;19918;-76
2021/11/04 01:57:02;;;;;;;;;;;409.80;2355.20;;;;;;4972151;28;19910;-76
2021/11/04 01:59:28;;;;;;;;;;;409.80;2355.20;;;;;;4971889;28;19910;-75
2021/11/04 02:02:17;;;;;;;;;;;409.80;2355.20;;;;;;4972267;28;19910;-76
2021/11/04 02:05:02;;;;;;;;;;;409.80;2355.20;;;;;;4913529;29;19923;-76
2021/11/04 02:07:37;;;;;;;;;;;409.80;2355.20;;;;;;4913536;29;20054;-76
2021/11/04 02:10:11;;;;;;;;;;;409.90;2355.20;;;;;;4913761;29;19907;-76
2021/11/04 02:12:52;;;;;;;;;;;410.00;2355.20;;;;;;4913614;29;19907;-75
2021/11/04 02:15:20;;;;;;;;;;;410.00;2355.20;;;;;;4913454;29;19911;-76
2021/11/04 02:17:46;;;;;;;;;;;410.20;2355.20;;;;;;4898083;29;19907;-77
2021/11/04 02:20:16;;;;;;;;;;;410.20;2355.20;;;;;;4913106;29;19907;-75
2021/11/04 02:23:02;;;;;;;;;;;410.20;2355.20;;;;;;4913741;29;19914;-76
2021/11/04 02:25:32;;;;;;;;;;;410.20;2355.20;;;;;;4913804;29;20314;-76
2021/11/04 02:27:59;;;;;;;;;;;410.30;2355.20;;;;;;4913327;29;19919;-76
2021/11/04 02:30:26;;;;;;;;;;;410.30;2355.20;;;;;;4915932;29;19923;-75
2021/11/04 02:32:52;;;;;;;;;;;410.30;2355.20;;;;;;4921851;29;19915;-76
2021/11/04 02:35:18;;;;;;;;;;;410.30;2355.20;;;;;;4922134;29;19907;-76
2021/11/04 02:37:44;;;;;;;;;;;410.30;2355.20;;;;;;4922617;29;20472;-76
2021/11/04 02:40:10;;;;;;;;;;;409.90;2355.20;;;;;;4925651;29;20011;-76
2021/11/04 02:42:36;;;;;;;;;;;410.30;2355.20;;;;;;4969507;28;19912;-76
2021/11/04 02:45:02;;;;;;;;;;;410.30;2355.20;;;;;;4976836;28;19933;-76
2021/11/04 02:47:28;;;;;;;;;;;410.30;2355.20;;;;;;4977020;28;19919;-76
2021/11/04 02:49:54;;;;;;;;;;;410.30;2355.20;;;;;;4974014;28;20435;-77
2021/11/04 02:52:20;;;;;;;;;;;410.40;2355.20;;;;;;4976834;28;19961;-76
2021/11/04 02:54:52;;;;;;;;;;;410.30;2355.20;;;;;;4976321;28;19914;-76
2021/11/04 02:57:18;;;;;;;;;;;410.50;2355.20;;;;;;4974520;28;19997;-76
2021/11/04 02:59:45;;;;;;;;;;;410.40;2355.20;;;;;;4974516;28;20012;-76
2021/11/04 03:02:10;;;;;;;;;;;410.50;2355.20;;;;;;4974943;28;20484;-75
2021/11/04 03:04:36;;;;;;;;;;;410.40;2355.20;;;;;;4976581;28;20004;-76
2021/11/04 03:07:01;;;;;;;;;;;410.30;2355.20;;;;;;4975234;28;20301;-76
2021/11/04 03:09:27;;;;;;;;;;;410.30;2355.20;;;;;;4976570;28;19913;-76
2021/11/04 03:11:53;;;;;;;;;;;410.30;2355.20;;;;;;4976408;28;19913;-75
2021/11/04 03:14:18;;;;;;;;;;;410.30;2355.20;;;;;;4975128;28;20344;-76
2021/11/04 03:16:45;;;;;;;;;;;410.30;2355.20;;;;;;4976106;28;19910;-76
2021/11/04 03:19:12;;;;;;;;;;;410.30;2355.20;;;;;;4976169;28;19945;-76
2021/11/04 03:21:45;;;;;;;;;;;410.30;2355.20;;;;;;4975970;28;20356;-76
2021/11/04 03:24:12;;;;;;;;;;;410.20;2355.20;;;;;;4976159;28;19984;-76
2021/11/04 03:26:38;;;;;;;;;;;410.20;2355.20;;;;;;4976052;28;19913;-77
2021/11/04 03:29:05;;;;;;;;;;;410.30;2355.20;;;;;;4975964;28;19997;-77
2021/11/04 03:31:31;;;;;;;;;;;410.30;2355.20;;;;;;4974468;28;19981;-76
2021/11/04 03:33:56;;;;;;;;;;;410.30;2355.20;;;;;;4974454;28;20403;-79
2021/11/04 03:36:22;;;;;;;;;;;410.40;2355.20;;;;;;4974817;28;19938;-78
2021/11/04 03:38:49;;;;;;;;;;;410.40;2355.20;;;;;;4970648;28;20061;-80
2021/11/04 03:41:16;;;;;;;;;;;410.50;2355.20;;;;;;4958807;28;19906;-79
2021/11/04 03:43:43;;;;;;;;;;;410.50;2355.20;;;;;;4974615;28;19912;-79
2021/11/04 03:46:09;;;;;;;;;;;410.50;2355.20;;;;;;4958399;28;20345;-79
2021/11/04 03:48:36;;;;;;;;;;;410.50;2355.20;;;;;;4974708;28;19913;-79
2021/11/04 03:51:02;;;;;;;;;;;410.50;2355.20;;;;;;4973804;28;19913;-77
2021/11/04 03:53:28;;;;;;;;;;;410.50;2355.20;;;;;;4974701;28;19914;-78
2021/11/04 03:55:55;;;;;;;;;;;410.50;2355.20;;;;;;4974395;28;20020;-78
2021/11/04 03:58:20;;;;;;;;;;;410.50;2355.20;;;;;;4974623;28;19953;-78
2021/11/04 04:00:46;;;;;;;;;;;435.20;2355.20;;;;;;4974203;28;19957;-78
2021/11/04 04:03:12;;;;;;;;;;;435.30;2355.20;;;;;;4974650;28;19934;-79
2021/11/04 04:05:38;;;;;;;;;;;435.30;2355.20;;;;;;4974495;28;20379;-79
2021/11/04 04:08:03;;;;;;;;;;;435.30;2355.20;;;;;;4974610;28;19910;-79
2021/11/04 04:10:32;;;;;;;;;;;435.20;2355.20;;;;;;4973941;28;19960;-78
2021/11/04 04:12:58;;;;;;;;;;;435.20;2355.20;;;;;;4975547;28;20009;-78
2021/11/04 04:15:23;;;;;;;;;;;435.20;2355.20;;;;;;4975365;28;19950;-81
2021/11/04 04:17:49;;;;;;;;;;;435.20;2355.20;;;;;;4974127;28;19906;-78
2021/11/04 04:20:15;;;;;;;;;;;410.50;2355.20;;;;;;4974434;28;19969;-78
2021/11/04 04:22:40;;;;;;;;;;;410.50;2355.20;;;;;;4974148;28;19906;-79
2021/11/04 04:25:06;;;;;;;;;;;410.50;2355.20;;;;;;4974108;28;19913;-79
2021/11/04 04:27:32;;;;;;;;;;;410.30;2355.20;;;;;;4973821;28;19973;-78
2021/11/04 04:29:57;;;;;;;;;;;410.30;2355.20;;;;;;4973545;28;19910;-78
2021/11/04 04:32:23;;;;;;;;;;;410.30;2355.20;;;;;;4973728;28;20008;-78
2021/11/04 04:34:49;;;;;;;;;;;410.40;2355.20;;;;;;4973739;28;19918;-78
2021/11/04 04:37:14;;;;;;;;;;;410.20;2355.20;;;;;;4973753;28;19933;-79
2021/11/04 04:39:40;;;;;;;;;;;410.50;2355.20;;;;;;4973747;28;20348;-77
2021/11/04 04:42:06;;;;;;;;;;;435.20;2355.20;;;;;;4973803;28;19953;-79
2021/11/04 04:44:33;;;;;;;;;;;435.30;2355.20;;;;;;4973531;28;19913;-77
2021/11/04 04:46:59;;;;;;;;;;;435.50;2355.20;;;;;;4973706;28;20375;-78
2021/11/04 04:49:24;;;;;;;;;;;435.50;2355.20;;;;;;4973476;28;19910;-78
2021/11/04 04:51:50;;;;;;;;;;;435.40;2355.20;;;;;;4973451;28;20415;-79
2021/11/04 04:54:16;;;;;;;;;;;435.40;2355.20;;;;;;4973105;28;19918;-78
2021/11/04 04:56:42;;;;;;;;;;;435.30;2355.20;;;;;;4973683;28;19910;-78
2021/11/04 04:59:07;;;;;;;;;;;435.30;2355.20;;;;;;4973158;28;19952;-78
2021/11/04 05:01:33;;;;;;;;;;;435.20;2355.20;;;;;;4973370;28;19913;-78
2021/11/04 05:03:59;;;;;;;;;;;410.50;2355.20;;;;;;4970568;28;19921;-78
2021/11/04 05:06:25;;;;;;;;;;;410.50;2355.20;;;;;;4974595;28;19910;-79
2021/11/04 05:08:50;;;;;;;;;;;410.50;2355.20;;;;;;4973119;28;20044;-78
2021/11/04 05:11:16;;;;;;;;;;;410.40;2355.20;;;;;;4973239;28;19910;-78
2021/11/04 05:13:41;;;;;;;;;;;410.30;2355.20;;;;;;4972584;28;19921;-78
2021/11/04 05:16:07;;;;;;;;;;;410.30;2355.20;;;;;;4974104;28;20380;-79
2021/11/04 05:18:33;;;;;;;;;;;410.30;2355.20;;;;;;4972787;28;20140;-79
2021/11/04 05:20:58;;;;;;;;;;;410.30;2355.20;;;;;;4972105;28;19917;-79
2021/11/04 05:23:24;;;;;;;;;;;410.30;2355.20;;;;;;4973950;28;19945;-78
2021/11/04 05:25:49;;;;;;;;;;;410.30;2355.20;;;;;;4972825;28;19912;-79
2021/11/04 05:28:15;;;;;;;;;;;410.30;2355.20;;;;;;4973843;28;19910;-79
2021/11/04 05:30:42;;;;;;;;;;;410.30;2355.20;;;;;;4970132;28;20376;-79
2021/11/04 05:33:08;;;;;;;;;;;410.40;2355.20;;;;;;4964456;28;19918;-78
2021/11/04 05:35:33;;;;;;;;;;;410.50;2355.20;;;;;;4964981;28;20431;-78
2021/11/04 05:37:59;;;;;;;;;;;410.50;2355.20;;;;;;4968962;28;19913;-79
2021/11/04 05:40:24;;;;;;;;;;;410.50;2355.20;;;;;;4970476;28;20382;-81
2021/11/04 05:42:51;;;;;;;;;;;410.50;2355.20;;;;;;4970535;28;19910;-79
2021/11/04 05:45:16;;;;;;;;;;;435.20;2355.20;;;;;;4972162;28;20284;-78
2021/11/04 05:47:42;;;;;;;;;;;435.30;2355.20;;;;;;4963063;28;19907;-79
2021/11/04 05:50:08;;;;;;;;;;;435.30;2355.20;;;;;;4970944;28;20348;-78
2021/11/04 05:52:33;;;;;;;;;;;435.30;2355.20;;;;;;4964535;28;19910;-75
2021/11/04 05:54:59;;;;;;;;;;;435.30;2355.20;;;;;;4962716;28;19914;-75
2021/11/04 05:57:25;;;;;;;;;;;435.20;2355.20;;;;;;4970732;28;20005;-75
2021/11/04 05:59:50;;;;;;;;;;;435.30;2355.20;;;;;;4964130;28;19917;-78
2021/11/04 06:02:16;;;;;;;;;;;435.30;2355.20;;;;;;4962506;28;19918;-75
2021/11/04 06:04:45;;;;;;;;;;;435.30;2355.20;;;;;;4972115;28;20041;-75
2021/11/04 06:07:11;;;;;;;;;;;435.30;2355.20;;;;;;4972040;28;20370;-76
2021/11/04 06:09:37;;;;;;;;;;;435.30;2355.20;;;;;;4962493;28;19970;-76
2021/11/04 06:12:03;;;;;;;;;;;435.30;2355.20;;;;;;4964172;28;20285;-75
2021/11/04 06:14:28;;;;;;;;;;;435.30;2355.20;;;;;;4963160;28;20380;-75
2021/11/04 06:16:54;;;;;;;;;;;435.30;2355.20;;;;;;4962993;28;19913;-76
2021/11/04 06:19:19;;;;;;;;;;;435.30;2355.20;;;;;;4962203;28;19910;-76
2021/11/04 06:21:45;;;;;;;;;;;435.30;2355.20;;;;;;4964548;28;19910;-76
2021/11/04 06:24:11;;;;;;;;;;;435.40;2355.20;;;;;;4963599;28;19929;-76
2021/11/04 06:26:37;;;;;;;;;;;435.50;2355.20;;;;;;4973235;28;19941;-76
2021/11/04 06:29:03;;;;;;;;;;;435.50;2355.20;;;;;;4962658;28;19907;-75
2021/11/04 06:31:28;;;;;;;;;;;435.50;2355.20;;;;;;4969930;28;19918;-75
2021/11/04 06:33:54;;;;;;;;;;;435.60;2355.20;;;;;;4968980;28;19925;-75
2021/11/04 06:36:19;;;;;;;;;;;435.60;2355.20;;;;;;4967260;28;19946;-75
2021/11/04 06:38:45;;;;;;;;;;;435.70;2355.20;;;;;;4961286;28;19952;-76
2021/11/04 06:41:11;;;;;;;;;;;435.70;2355.20;;;;;;4963348;28;19911;-76
2021/11/04 06:43:36;;;;;;;;;;;435.80;2355.20;;;;;;4969262;28;20382;-76
2021/11/04 06:46:02;;;;;;;;;;;435.80;2355.20;;;;;;4964020;28;19914;-80
2021/11/04 06:48:49;;;;;;;;;;;435.90;2355.20;;;;;;4970196;28;19906;-78
2021/11/04 06:51:17;;;;;;;;;;;435.90;2355.20;;;;;;4964271;28;19929;-79
2021/11/04 06:53:53;;;;;;;;;;;436.00;2355.20;;;;;;4968835;28;19914;-74
2021/11/04 06:56:19;;;;;;;;;;;436.10;2355.20;;;;;;4962131;28;19913;-75
2021/11/04 06:58:47;;;;;;;;;;;436.10;2355.20;;;;;;4963965;28;19910;-79
2021/11/04 07:01:14;;;;;;;;;;;436.10;2355.20;;;;;;4971378;28;19914;-77
2021/11/04 07:03:42;;;;;;;;;;;436.10;2355.20;;;;;;4967814;28;20408;-74
2021/11/04 07:06:09;;;;;;;;;;;436.10;2355.20;;;;;;4964792;28;19938;-74
2021/11/04 07:08:41;;;;;;;;;;;460.80;2380.80;;;;;;4962561;28;19960;-81
2021/11/04 07:11:07;;;;;;;;;;;460.80;2380.80;;;;;;4970481;28;19906;-73
2021/11/04 07:13:33;;;;;;;;;;;460.80;2380.80;;;;;;4969730;28;19922;-75
2021/11/04 07:15:59;;;;;;;;;;;460.80;2380.80;;;;;;4963764;28;19913;-75
2021/11/04 07:18:25;;;;;;;;;;;460.80;2380.80;;;;;;4969877;28;20306;-75
2021/11/04 07:21:02;;;;;;;;;;;460.90;2380.80;;;;;;4955247;28;19993;-77
2021/11/04 07:23:47;;;;;;;;;;;460.80;2380.80;;;;;;4967243;28;19938;-75
2021/11/04 07:26:13;;;;;;;;;;;460.80;2380.80;;;;;;4971513;28;20017;-76
2021/11/04 07:28:40;;;;;;;;;;;460.90;2380.80;;;;;;4965471;28;19997;-76
2021/11/04 07:31:08;;;;;;;;;;;461.10;2380.80;;;;;;4974372;28;20451;-75
2021/11/04 07:33:34;;;;;;;;;;;461.10;2380.80;;;;;;4975630;28;19984;-74
2021/11/04 07:36:01;;;;;;;;;;;461.10;2380.80;;;;;;4976106;28;20025;-75
2021/11/04 07:38:28;;;;;;;;;;;461.20;2380.80;;;;;;4975654;28;20420;-75
2021/11/04 07:40:53;;;;;;;;;;;461.20;2380.80;;;;;;4975835;28;20380;-74
2021/11/04 07:43:19;;;;;;;;;;;461.20;2380.80;;;;;;4975751;28;19912;-75
2021/11/04 07:45:44;;;;;;;;;;;461.40;2380.80;;;;;;4974036;28;19965;-76
2021/11/04 07:48:10;;;;;;;;;;;461.40;2380.80;;;;;;4975953;28;19929;-74
2021/11/04 07:50:36;;;;;;;;;;;461.40;2380.80;;;;;;4975425;28;20005;-74
2021/11/04 07:53:02;;;;;;;;;;;461.40;2380.80;;;;;;4975519;28;19914;-80
2021/11/04 07:55:27;;;;;;;;;;;461.40;2380.80;;;;;;4975439;28;20379;-75
2021/11/04 07:57:53;;;;;;;;;;;461.40;2380.80;;;;;;4975666;28;19960;-75
2021/11/04 08:00:20;;;;;;;;;;;461.50;2380.80;;;;;;4974864;28;19988;-75
2021/11/04 08:02:45;;;;;;;;;;;461.40;2380.80;;;;;;4974162;28;19914;-76
2021/11/04 08:05:16;;;;;;;;;;;461.40;2380.80;;;;;;4974183;28;19906;-74
2021/11/04 08:07:42;;;;;;;;;;;461.50;2380.80;;;;;;4974081;28;19921;-74
2021/11/04 08:10:09;;;;;;;;;;;461.50;2380.80;;;;;;4973144;28;19910;-74
2021/11/04 08:12:35;;;;;;;;;;;461.60;2380.80;;;;;;4975092;28;20520;-74
2021/11/04 08:15:01;;;;;;;;;;;461.70;2380.80;;;;;;4974753;28;19994;-75
2021/11/04 08:17:27;;;;;;;;;;;486.40;2380.80;;;;;;4974889;28;19912;-74
2021/11/04 08:19:53;;;;;;;;;;;486.40;2380.80;;;;;;4974743;28;19906;-75
2021/11/04 08:22:18;;;;;;;;;;;486.50;2380.80;;;;;;4975183;28;19906;-76
2021/11/04 08:24:44;;;;;;;;;;;486.70;2380.80;;;;;;4975199;28;19906;-75
2021/11/04 08:27:10;;;;;;;;;;;486.70;2380.80;;;;;;4974453;28;20349;-75
2021/11/04 08:29:36;;;;;;;;;;;486.80;2380.80;;;;;;4975165;28;20037;-75
2021/11/04 08:32:01;;;;;;;;;;;486.80;2380.80;;;;;;4957817;28;20269;-81
2021/11/04 08:34:27;;;;;;;;;;;487.00;2380.80;;;;;;4974271;28;19918;-77
2021/11/04 08:36:52;;;;;;;;;;;487.00;2380.80;;;;;;4974959;28;20000;-77
2021/11/04 08:39:18;;;;;;;;;;;487.10;2380.80;;;;;;4975069;28;20276;-79
2021/11/04 08:41:44;;;;;;;;;;;487.20;2380.80;;;;;;4975273;28;19953;-77
2021/11/04 08:44:09;;;;;;;;;;;487.30;2380.80;;;;;;4974910;28;20415;-75
2021/11/04 08:46:35;;;;;;;;;;;512.10;2380.80;;;;;;4975019;28;19972;-76
2021/11/04 08:49:04;;;;;;;;;;;512.40;2380.80;;;;;;4974779;28;19952;-76
2021/11/04 08:51:29;;;;;;;;;;;512.60;2380.80;;;;;;4975073;28;19935;-75
2021/11/04 08:53:55;;;;;;;;;;;512.80;2380.80;;;;;;4987130;28;20450;-75
2021/11/04 08:56:21;;;;;;;;;;;512.90;2380.80;;;;;;4973732;28;19984;-76
2021/11/04 08:58:47;;;;;;;;;;;537.60;2406.40;;;;;;4988218;28;19996;-79
2021/11/04 09:01:12;;;;;;;;;;;537.70;2406.40;;;;;;4974773;28;19917;-78
2021/11/04 09:03:38;;;;;;;;;;;538.30;2406.40;;;;;;4973326;28;20312;-76
2021/11/04 09:06:04;;;;;;;;;;;538.00;2406.40;;;;;;4973247;28;20428;-75
2021/11/04 09:08:30;;;;;;;;;;;538.20;2406.40;;;;;;4974627;28;19928;-76
2021/11/04 09:10:56;;;;;;;;;;;538.20;2406.40;;;;;;4974268;28;19954;-76
2021/11/04 09:13:22;;;;;;;;;;;538.30;2406.40;;;;;;4974609;28;19918;-75
2021/11/04 09:15:47;;;;;;;;;;;538.30;2406.40;;;;;;4975799;28;19906;-75
2021/11/04 09:18:13;;;;;;;;;;;538.40;2406.40;;;;;;4986522;28;19906;-75
2021/11/04 09:20:39;;;;;;;;;;;538.40;2406.40;;;;;;4972885;28;19906;-75
2021/11/04 09:23:05;;;;;;;;;;;538.50;2406.40;;;;;;4974403;28;19910;-80
2021/11/04 09:25:31;;;;;;;;;;;538.50;2406.40;;;;;;4972556;28;20339;-76
2021/11/04 09:27:56;;;;;;;;;;;563.30;2432.00;;;;;;4973964;28;19921;-78
2021/11/04 09:30:23;;;;;;;;;;;563.40;2432.00;;;;;;4973617;28;19910;-80
2021/11/04 09:32:48;;;;;;;;;;;;;;;;;;4973525;28;20365;-75
2021/11/04 09:35:14;;;;;;;;;;;563.60;2406.40;;;;;;4974161;28;19910;-74
2021/11/04 09:37:41;;;;;;;;;;;563.80;2432.00;;;;;;4973854;28;19905;-76
2021/11/04 09:40:07;;;;;;;;;;;563.90;2406.40;;;;;;4973526;28;20299;-77
2021/11/04 09:42:33;;;;;;;;;;;564.00;2355.20;;;;;;4973719;28;20378;-76
2021/11/04 09:44:58;;;;;;;;;;;589.10;2355.20;;;;;;4972854;28;19906;-77
2021/11/04 09:47:28;;;;;;;;;;;563.90;2329.60;;;;;;4971799;28;19910;-76
2021/11/04 09:49:55;;;;;;;;;;;588.90;2304.00;;;;;;4971518;28;20422;-77
2021/11/04 09:52:28;;;;;;;;;;;589.00;2304.00;;;;;;4971873;28;20009;-76
2021/11/04 09:54:54;;;;;;;;;;;589.20;2278.40;;;;;;4970968;28;19913;-76
2021/11/04 09:57:20;;;;;;;;;;;589.00;2252.80;;;;;;4973295;28;20386;-76
2021/11/04 09:59:46;;;;;;;;;;;589.40;2227.20;;;;;;4968000;28;19956;-76
2021/11/04 10:02:16;;;;;;;;;;;589.50;2227.20;;;;;;4972056;28;19937;-75
2021/11/04 10:04:43;;;;;;;;;;;589.50;2227.20;;;;;;4973240;28;19953;-76
2021/11/04 10:07:10;;;;;;;;;;;589.70;2201.60;;;;;;4973414;28;19910;-75
2021/11/04 10:09:35;;;;;;;;;;;589.60;2176.00;;;;;;4984155;28;19922;-75
2021/11/04 10:12:04;;;;;;;;;;;589.50;2176.00;;;;;;4972097;28;19914;-77
2021/11/04 10:14:30;;;;;;;;;;;589.50;2176.00;;;;;;4971878;28;19973;-78
2021/11/04 10:16:56;;;;;;;;;;;589.60;2176.00;;;;;;4972721;28;19953;-74
2021/11/04 10:19:23;;;;;;;;;;;589.70;2150.40;;;;;;4973092;28;19906;-74
2021/11/04 10:21:52;;;;;;;;;;;614.40;2150.40;;;;;;4973347;28;20309;-75
2021/11/04 10:24:25;;;;;;;;;;;614.50;2124.80;;;;;;4973321;28;19917;-75
2021/11/04 10:26:56;;;;;;;;;;;614.60;2124.80;;;;;;4973363;28;19953;-81
2021/11/04 10:29:26;;;;;;;;;;;589.30;2099.20;;;;;;4973207;28;19910;-76
2021/11/04 10:31:56;;;;;;;;;;;614.40;2099.20;;;;;;4973201;28;19926;-76
2021/11/04 10:34:29;;;;;;;;;;;589.70;2099.20;;;;;;4971115;28;19914;-76
2021/11/04 10:36:55;;;;;;;;;;;589.60;2099.20;;;;;;4961563;28;19990;-76
2021/11/04 10:39:28;;;;;;;;;;;589.70;2124.80;;;;;;4972968;28;19992;-76
2021/11/04 10:41:56;;;;;;;;;;;614.60;2099.20;;;;;;4971998;28;19910;-76
2021/11/04 10:44:22;;;;;;;;;;;614.60;2073.60;;;;;;4973243;28;20754;-83
2021/11/04 10:46:50;;;;;;;;;;;614.90;2048.00;;;;;;4971791;28;19910;-76
2021/11/04 10:49:16;;;;;;;;;;;615.00;1996.80;;;;;;4973460;28;20388;-77
2021/11/04 10:51:42;;;;;;;;;;;615.30;1996.80;;;;;;4986127;28;19906;-77
2021/11/04 10:54:08;;;;;;;;;;;;;;;;;;4973758;28;20589;-75
2021/11/04 10:56:35;;;;;;;;;;;640.10;1971.20;;;;;;4972195;28;19996;-76
2021/11/04 10:59:01;;;;;;;;;;;640.20;1945.60;;;;;;4974273;28;19906;-76
2021/11/04 11:01:31;;;;;;;;;;;640.20;1945.60;;;;;;4976682;28;19909;-76
2021/11/04 11:04:02;;;;;;;;;;;640.20;1945.60;;;;;;4976832;28;19917;-75
2021/11/04 11:06:43;;;;;;;;;;;640.30;1945.60;;;;;;4976882;28;19913;-75
2021/11/04 11:09:11;;;;;;;;;;;640.20;1920.00;;;;;;4976633;28;19980;-76
2021/11/04 11:11:37;;;;;;;;;;;640.30;1920.00;;;;;;4979988;28;19910;-75
2021/11/04 11:14:03;;;;;;;;;;;640.50;1920.00;;;;;;4972372;28;19997;-74
2021/11/04 11:16:29;;;;;;;;;;;640.50;1894.40;;;;;;4976202;28;19910;-75
2021/11/04 11:18:57;;;;;;;;;;;640.40;1920.00;;;;;;4971939;28;19910;-75
2021/11/04 11:21:22;;;;;;;;;;;;;;;;;;4969508;28;19910;-73
2021/11/04 11:23:49;;;;;;;;;;;640.50;1920.00;;;;;;4975707;28;20253;-75
2021/11/04 11:26:15;;;;;;;;;;;640.50;1894.40;;;;;;4974424;28;20324;-75
2021/11/04 11:28:41;;;;;;;;;;;640.40;1920.00;;;;;;4975147;28;19915;-75
2021/11/04 11:31:10;;;;;;;;;;;640.30;1920.00;;;;;;4975488;28;19924;-79
2021/11/04 11:33:36;;;;;;;;;;;640.30;1920.00;;;;;;4976158;28;19972;-79
2021/11/04 11:36:10;;;;;;;;;;;640.20;1920.00;;;;;;4975810;28;19929;-77
2021/11/04 11:38:54;;;;;;;;;;;615.30;1945.60;;;;;;4976083;28;19914;-76
2021/11/04 11:41:20;;;;;;;;;;;615.10;1945.60;;;;;;4974984;28;19961;-78
2021/11/04 11:43:58;;;;;;;;;;;614.90;1971.20;;;;;;4976208;28;19958;-77
2021/11/04 11:46:25;;;;;;;;;;;614.90;1996.80;;;;;;4976429;28;19950;-78
2021/11/04 11:49:23;;;;;;;;;;;614.80;1996.80;;;;;;4979706;28;19906;-79
2021/11/04 11:51:54;;;;;;;;;;;614.70;2048.00;;;;;;4915304;29;19914;-74
2021/11/04 11:54:20;;;;;;;;;;;614.60;2048.00;;;;;;4917001;29;19918;-76
2021/11/04 11:57:12;;;;;;;;;;;614.60;2048.00;;;;;;4916478;29;19915;-76
2021/11/04 11:59:48;;;;;;;;;;;614.60;2073.60;;;;;;4914415;29;19950;-79
2021/11/04 12:02:54;;;;;;;;;;;614.60;2073.60;;;;;;4911815;29;19987;-83
2021/11/04 12:05:20;;;;;;;;;;;614.80;2048.00;;;;;;4868836;29;20410;-75
2021/11/04 12:07:51;;;;;;;;;;;615.00;2022.40;;;;;;4863174;29;19912;-79
2021/11/04 12:10:31;;;;;;;;;;;615.00;2022.40;;;;;;4890841;29;20002;-77
2021/11/04 12:12:58;;;;;;;;;;;615.10;2022.40;;;;;;4897306;29;19915;-75
2021/11/04 12:15:24;;;;;;;;;;;615.20;1996.80;;;;;;4896944;29;19934;-76
2021/11/04 12:18:08;;;;;;;;;;;615.20;1971.20;;;;;;4891574;29;19908;-76
2021/11/04 12:20:34;;;;;;;;;;;615.10;1945.60;;;;;;4878372;29;19911;-75
2021/11/04 12:23:00;;;;;;;;;;;615.10;1996.80;;;;;;4878166;29;19908;-76
2021/11/04 12:25:28;;;;;;;;;;;614.80;2099.20;;;;;;4885576;29;20377;-75
2021/11/04 12:27:57;;;;;;;;;;;614.80;2073.60;;;;;;4930081;29;19938;-75
2021/11/04 12:30:25;;;;;;;;;;;614.70;2073.60;;;;;;4953116;29;19985;-82
2021/11/04 12:32:57;;;;;;;;;;;614.60;2073.60;;;;;;4953293;28;20013;-77
2021/11/04 12:35:23;;;;;;;;;;;614.60;2073.60;;;;;;4953484;29;20515;-75
2021/11/04 12:37:50;;;;;;;;;;;614.50;2099.20;;;;;;4937091;29;19922;-79
2021/11/04 12:40:15;;;;;;;;;;;614.50;2073.60;;;;;;4964854;28;19981;-81
2021/11/04 12:42:45;;;;;;;;;;;614.50;2073.60;;;;;;4964112;28;19971;-80
2021/11/04 12:45:18;;;;;;;;;;;614.40;2099.20;;;;;;4966603;28;19910;-78
2021/11/04 12:47:44;;;;;;;;;;;589.70;2124.80;;;;;;4966523;28;19940;-76
2021/11/04 12:50:10;;;;;;;;;;;589.70;2150.40;;;;;;4967333;28;19922;-75
2021/11/04 12:52:35;;;;;;;;;;;589.60;2150.40;;;;;;4957184;28;19961;-77
2021/11/04 12:55:01;;;;;;;;;;;589.60;2150.40;;;;;;4966215;28;20387;-75
2021/11/04 12:57:27;;;;;;;;;;;589.50;2176.00;;;;;;4966692;28;19910;-75
2021/11/04 12:59:56;;;;;;;;;;;589.40;2176.00;;;;;;4972893;28;19910;-76
2021/11/04 13:02:25;;;;;;;;;;;589.30;2227.20;;;;;;4974046;28;19910;-75
2021/11/04 13:04:51;;;;;;;;;;;589.20;2278.40;;;;;;4974204;28;20010;-75
2021/11/04 13:07:18;;;;;;;;;;;589.00;2329.60;;;;;;4973864;28;20001;-76
2021/11/04 13:09:51;;;;;;;;;;;588.90;2380.80;;;;;;4974081;28;20253;-81
2021/11/04 13:12:18;;;;;;;;;;;588.90;2329.60;;;;;;4973835;28;19906;-76
2021/11/04 13:15:01;;;;;;;;;;;564.10;2432.00;;;;;;4967312;28;19964;-75
2021/11/04 13:17:38;;;;;;;;;;;563.80;2432.00;;;;;;4965516;28;19988;-75
2021/11/04 13:20:07;;;;;;;;;;;563.50;2432.00;;;;;;4966027;28;19965;-74
2021/11/04 13:22:35;;;;;;;;;;;563.30;2432.00;;;;;;4962071;28;19966;-76
2021/11/04 13:25:02;;;;;;;;;;;563.30;2432.00;;;;;;4968389;28;19914;-77
2021/11/04 13:27:28;;;;;;;;;;;538.50;2406.40;;;;;;4965862;28;19913;-75
2021/11/04 13:29:55;;;;;;;;;;;538.40;2406.40;;;;;;4963556;28;20342;-78
2021/11/04 13:32:23;;;;;;;;;;;538.20;2406.40;;;;;;4972164;28;19930;-75
2021/11/04 13:34:49;;;;;;;;;;;537.90;2406.40;;;;;;4973864;28;19914;-80
2021/11/04 13:37:18;;;;;;;;;;;537.80;2406.40;;;;;;4972557;28;19981;-76
2021/11/04 13:39:44;;;;;;;;;;;512.80;2380.80;;;;;;4973749;28;19993;-77
2021/11/04 13:42:28;;;;;;;;;;;512.70;2380.80;;;;;;4973462;28;20000;-75